Time;durP1;ratioP1;P1;durP2;ratioP2;P2;SDS_P1;SDS_P2;PMS_P1;PMS_P2;Temp;Humidity;BMP_temperature;BMP_pressure;BME280_temperature;BME280_humidity;BME280_pressure;Samples;Min_cycle;Max_cycle;Signal;HPM_P1;HPM_P2
2022/07/08 00:00:15;;;;;;;2.83;1.27;;;16.10;83.40;;;;;;5051921;28;21453;-87
2022/07/08 00:02:42;;;;;;;1.20;1.10;;;16.00;83.40;;;;;;5050362;28;20680;-87
2022/07/08 00:05:09;;;;;;;0.70;0.70;;;16.10;84.00;;;;;;5050163;28;20689;-85
2022/07/08 00:07:37;;;;;;;2.00;1.33;;;16.20;83.30;;;;;;5050967;28;20618;-86
2022/07/08 00:10:05;;;;;;;1.80;1.40;;;16.10;83.10;;;;;;5051631;28;20717;-88
2022/07/08 00:12:33;;;;;;;1.40;1.30;;;16.10;83.20;;;;;;5051196;28;20618;-87
2022/07/08 00:15:01;;;;;;;0.87;0.80;;;16.10;82.50;;;;;;5050736;28;20626;-87
2022/07/08 00:17:29;;;;;;;1.10;1.00;;;16.10;83.00;;;;;;5049846;28;20634;-86
2022/07/08 00:19:57;;;;;;;1.07;0.97;;;16.10;83.10;;;;;;5051129;28;21050;-87
2022/07/08 00:22:25;;;;;;;1.00;0.83;;;16.10;83.20;;;;;;5050426;28;20634;-86
2022/07/08 00:24:53;;;;;;;1.80;1.07;;;15.80;83.00;;;;;;5050421;28;20679;-87
2022/07/08 00:27:21;;;;;;;1.30;1.20;;;16.00;83.70;;;;;;5050876;28;20721;-86
2022/07/08 00:29:48;;;;;;;0.70;0.70;;;15.90;83.40;;;;;;5050837;28;20697;-88
2022/07/08 00:32:15;;;;;;;2.47;1.17;;;15.80;83.10;;;;;;5051351;28;20692;-86
2022/07/08 00:34:46;;;;;;;0.83;0.83;;;15.60;83.30;;;;;;5051140;28;20602;-86
2022/07/08 00:37:14;;;;;;;1.03;1.03;;;15.70;83.80;;;;;;5051776;28;20622;-87
2022/07/08 00:39:42;;;;;;;3.43;1.27;;;15.70;83.80;;;;;;5050660;28;20717;-87
2022/07/08 00:42:09;;;;;;;1.53;0.90;;;15.60;83.70;;;;;;5050350;28;20633;-88
2022/07/08 00:44:37;;;;;;;3.20;1.67;;;15.50;83.60;;;;;;5051870;28;20934;-86
2022/07/08 00:47:05;;;;;;;1.17;1.10;;;15.40;83.50;;;;;;5050653;28;20614;-86
2022/07/08 00:49:33;;;;;;;0.97;0.97;;;15.40;83.70;;;;;;5051321;28;21258;-87
2022/07/08 00:52:02;;;;;;;1.40;1.30;;;15.40;83.30;;;;;;5050387;28;21095;-86
2022/07/08 00:54:30;;;;;;;1.27;1.10;;;15.30;82.90;;;;;;5049452;28;20697;-85
2022/07/08 00:56:58;;;;;;;1.10;1.00;;;15.20;82.70;;;;;;5048738;28;20758;-86
2022/07/08 00:59:27;;;;;;;2.10;1.90;;;15.20;82.00;;;;;;5049901;28;20646;-87
2022/07/08 01:01:54;;;;;;;1.63;1.30;;;15.10;81.50;;;;;;5049613;28;20712;-86
2022/07/08 01:04:21;;;;;;;1.83;1.63;;;15.00;81.50;;;;;;5049404;28;20626;-86
2022/07/08 01:06:48;;;;;;;1.13;1.07;;;15.00;81.70;;;;;;5049527;28;20610;-86
2022/07/08 01:09:17;;;;;;;3.30;1.80;;;15.00;80.90;;;;;;5048495;28;20652;-87
2022/07/08 01:11:46;;;;;;;1.87;1.50;;;15.00;81.60;;;;;;5049781;28;20599;-85
2022/07/08 01:14:13;;;;;;;1.50;1.40;;;15.00;80.90;;;;;;5049929;28;20609;-86
2022/07/08 01:16:40;;;;;;;2.60;1.53;;;15.00;80.90;;;;;;5049347;28;20998;-86
2022/07/08 01:19:08;;;;;;;1.90;1.60;;;15.00;80.70;;;;;;5049571;28;20992;-86
2022/07/08 01:21:37;;;;;;;1.60;1.50;;;14.90;80.50;;;;;;5049556;28;21035;-87
2022/07/08 01:24:05;;;;;;;1.53;1.10;;;14.90;80.50;;;;;;5049360;28;20667;-87
2022/07/08 01:26:32;;;;;;;1.50;1.13;;;14.90;80.40;;;;;;5047662;28;20630;-86
2022/07/08 01:29:03;;;;;;;2.60;1.80;;;14.90;80.00;;;;;;5049359;28;21211;-88
2022/07/08 01:31:30;;;;;;;1.67;1.30;;;14.60;79.70;;;;;;5049713;28;20736;-87
2022/07/08 01:33:58;;;;;;;2.00;1.67;;;14.60;80.00;;;;;;5050163;28;21260;-87
2022/07/08 01:36:26;;;;;;;1.43;1.03;;;14.50;79.10;;;;;;5048912;28;20629;-87
2022/07/08 01:38:55;;;;;;;0.80;0.80;;;14.40;79.70;;;;;;5049119;28;20638;-86
2022/07/08 01:41:22;;;;;;;1.40;1.30;;;14.30;79.40;;;;;;5048716;28;21540;-87
2022/07/08 01:43:50;;;;;;;1.17;1.07;;;14.30;79.60;;;;;;5049133;28;20664;-86
2022/07/08 01:46:18;;;;;;;1.43;1.33;;;14.20;79.90;;;;;;5048493;28;20619;-86
2022/07/08 01:48:45;;;;;;;1.30;1.20;;;14.20;79.90;;;;;;5049066;28;20621;-86
2022/07/08 01:51:13;;;;;;;1.90;1.63;;;14.10;79.90;;;;;;5048519;28;20629;-86
2022/07/08 01:53:40;;;;;;;2.40;1.53;;;12.80;77.70;;;;;;5048984;28;20652;-87
2022/07/08 01:56:10;;;;;;;1.17;1.07;;;14.10;79.50;;;;;;5047986;28;20606;-86
2022/07/08 01:58:37;;;;;;;2.47;1.40;;;14.10;79.20;;;;;;5048701;28;20648;-86
2022/07/08 02:01:04;;;;;;;1.63;1.47;;;14.10;80.00;;;;;;5049188;28;20616;-87
2022/07/08 02:03:31;;;;;;;1.80;1.70;;;13.90;80.00;;;;;;5048761;28;20622;-87
2022/07/08 02:05:58;;;;;;;1.50;1.40;;;13.80;81.40;;;;;;5048147;28;21269;-86
2022/07/08 02:08:27;;;;;;;1.43;1.33;;;13.70;81.90;;;;;;5049157;28;20617;-87
2022/07/08 02:13:40;;;;;;;1.40;1.30;;;13.60;81.90;;;;;;5048830;28;20633;-87
2022/07/08 02:16:07;;;;;;;2.33;1.53;;;13.80;82.40;;;;;;5047976;28;20701;-87
2022/07/08 02:18:34;;;;;;;1.47;1.27;;;13.60;82.60;;;;;;5048839;28;20645;-88
2022/07/08 02:21:01;;;;;;;4.00;2.03;;;13.60;82.70;;;;;;5048938;28;20610;-87
2022/07/08 02:23:28;;;;;;;1.20;1.10;;;13.40;82.50;;;;;;5049326;28;21507;-87
2022/07/08 02:25:55;;;;;;;3.40;2.03;;;13.40;83.30;;;;;;5048954;28;20700;-87
2022/07/08 02:28:22;;;;;;;1.10;1.10;;;13.40;83.30;;;;;;5049266;28;20989;-87
2022/07/08 02:30:50;;;;;;;1.80;1.40;;;13.30;83.30;;;;;;5048454;28;21235;-87
2022/07/08 02:33:17;;;;;;;5.00;1.43;;;13.40;83.70;;;;;;5049084;28;20636;-88
2022/07/08 02:35:47;;;;;;;1.40;1.30;;;13.20;83.60;;;;;;5048519;28;20621;-87
2022/07/08 02:38:14;;;;;;;1.33;0.87;;;13.20;84.40;;;;;;5048657;28;21183;-88
2022/07/08 02:40:41;;;;;;;1.07;1.07;;;13.20;84.10;;;;;;5048972;28;20626;-87
2022/07/08 02:43:10;;;;;;;2.33;1.37;;;13.20;84.50;;;;;;5049076;28;20939;-87
2022/07/08 02:45:38;;;;;;;1.37;1.17;;;13.20;84.70;;;;;;5050405;28;21075;-86
2022/07/08 02:48:07;;;;;;;1.20;1.10;;;13.00;84.40;;;;;;5048903;28;20652;-87
2022/07/08 02:50:34;;;;;;;1.70;1.20;;;13.10;84.80;;;;;;5048665;28;20621;-88
2022/07/08 02:53:01;;;;;;;1.83;1.63;;;13.00;85.10;;;;;;5048850;28;20622;-87
2022/07/08 02:55:28;;;;;;;1.37;1.27;;;12.90;85.20;;;;;;5048204;28;20685;-86
2022/07/08 02:57:55;;;;;;;2.50;1.40;;;12.90;86.00;;;;;;5048395;28;20628;-88
2022/07/08 03:00:22;;;;;;;1.27;1.17;;;12.90;86.00;;;;;;5049147;28;20617;-88
2022/07/08 03:02:49;;;;;;;1.33;1.23;;;12.80;86.10;;;;;;5048879;28;20709;-86
2022/07/08 03:05:17;;;;;;;1.57;1.20;;;13.00;86.10;;;;;;5048554;28;20653;-87
2022/07/08 03:07:44;;;;;;;4.47;2.10;;;12.90;86.40;;;;;;5048313;28;20715;-87
2022/07/08 03:10:11;;;;;;;1.40;1.30;;;13.00;86.20;;;;;;5047999;28;20711;-86
2022/07/08 03:12:38;;;;;;;0.80;0.77;;;13.10;85.80;;;;;;5048149;28;20626;-87
2022/07/08 03:15:05;;;;;;;1.67;1.17;;;12.90;85.50;;;;;;5047781;28;20622;-87
2022/07/08 03:17:32;;;;;;;1.00;0.93;;;13.00;86.00;;;;;;5047343;28;20705;-89
2022/07/08 03:19:59;;;;;;;2.00;1.03;;;13.00;86.20;;;;;;5047765;28;20632;-87
2022/07/08 03:22:27;;;;;;;2.10;1.53;;;12.90;86.00;;;;;;5048169;28;21066;-86
2022/07/08 03:24:54;;;;;;;1.90;1.10;;;12.90;86.40;;;;;;5047449;28;20626;-87
2022/07/08 03:27:21;;;;;;;1.47;1.37;;;12.80;86.70;;;;;;5051882;28;20741;-88
2022/07/08 03:29:48;;;;;;;1.37;1.27;;;12.80;86.70;;;;;;5051979;28;21000;-85
2022/07/08 03:32:15;;;;;;;1.20;1.10;;;12.70;87.30;;;;;;5052042;28;20713;-88
2022/07/08 03:34:42;;;;;;;1.10;0.87;;;12.80;87.30;;;;;;5051973;28;20606;-87
2022/07/08 03:37:08;;;;;;;1.80;1.50;;;12.80;87.00;;;;;;5050803;28;21258;-87
2022/07/08 03:39:37;;;;;;;2.27;2.07;;;12.90;87.00;;;;;;5051184;28;20626;-88
2022/07/08 03:42:03;;;;;;;0.80;0.80;;;12.80;87.30;;;;;;5051188;28;20680;-85
2022/07/08 03:44:30;;;;;;;1.27;1.17;;;12.80;87.80;;;;;;5051523;28;20616;-86
2022/07/08 03:46:57;;;;;;;1.83;1.40;;;12.80;87.30;;;;;;5049715;28;21199;-89
2022/07/08 03:49:24;;;;;;;3.07;1.63;;;12.80;87.80;;;;;;5050519;28;20657;-87
2022/07/08 03:51:51;;;;;;;1.07;0.97;;;12.80;87.70;;;;;;5050747;28;20648;-88
2022/07/08 03:54:18;;;;;;;4.83;1.00;;;12.80;88.30;;;;;;5050848;28;21061;-86
2022/07/08 03:56:46;;;;;;;1.23;1.13;;;12.80;88.60;;;;;;5050384;28;21079;-88
2022/07/08 03:59:13;;;;;;;1.50;0.87;;;12.60;88.50;;;;;;5051405;28;20614;-89
2022/07/08 04:01:40;;;;;;;1.30;1.20;;;12.60;89.30;;;;;;5051038;28;20649;-86
2022/07/08 04:04:07;;;;;;;3.93;1.20;;;12.60;89.40;;;;;;5050988;28;20671;-88
2022/07/08 04:06:34;;;;;;;1.90;1.80;;;12.50;89.10;;;;;;5049943;28;20621;-87
2022/07/08 04:09:01;;;;;;;1.87;1.27;;;12.50;89.50;;;;;;5050806;28;21277;-86
2022/07/08 04:11:28;;;;;;;1.57;1.43;;;12.50;90.00;;;;;;5050531;28;20699;-87
2022/07/08 04:13:56;;;;;;;0.90;0.90;;;12.60;90.50;;;;;;5050464;28;20680;-87
2022/07/08 04:16:23;;;;;;;1.50;1.40;;;12.60;90.40;;;;;;5049690;28;20622;-87
2022/07/08 04:18:50;;;;;;;1.53;1.43;;;12.60;90.50;;;;;;5050517;28;21032;-87
2022/07/08 04:21:17;;;;;;;1.50;1.33;;;12.60;90.10;;;;;;5050459;28;20643;-88
2022/07/08 04:23:44;;;;;;;2.40;0.90;;;12.60;90.20;;;;;;5051026;28;20621;-87
2022/07/08 04:26:11;;;;;;;1.27;1.17;;;12.50;90.00;;;;;;5050191;28;21246;-87
2022/07/08 04:28:38;;;;;;;1.63;1.53;;;12.50;90.20;;;;;;5050389;28;20654;-88
2022/07/08 04:31:06;;;;;;;0.97;0.97;;;12.50;90.60;;;;;;5050388;28;20649;-86
2022/07/08 04:33:33;;;;;;;1.40;1.30;;;12.50;90.50;;;;;;5050086;28;20697;-89
2022/07/08 04:36:00;;;;;;;2.67;1.73;;;12.50;90.40;;;;;;5049388;28;20636;-87
2022/07/08 04:38:27;;;;;;;1.83;1.73;;;12.60;90.80;;;;;;5050304;28;21039;-87
2022/07/08 04:40:54;;;;;;;9.40;2.90;;;12.50;90.50;;;;;;5049997;28;20726;-88
2022/07/08 04:43:20;;;;;;;1.27;1.17;;;12.60;90.30;;;;;;5050638;28;20622;-88
2022/07/08 04:45:47;;;;;;;1.93;1.83;;;12.80;89.90;;;;;;5050180;28;20634;-88
2022/07/08 04:48:15;;;;;;;1.17;1.07;;;12.80;90.00;;;;;;5049229;28;20638;-87
2022/07/08 04:50:42;;;;;;;1.27;1.17;;;12.90;90.00;;;;;;5050135;28;20752;-87
2022/07/08 04:53:09;;;;;;;1.83;1.60;;;12.90;89.80;;;;;;5049947;28;20602;-88
2022/07/08 04:55:36;;;;;;;2.47;2.13;;;;;;;;;;5049263;28;20614;-85
2022/07/08 04:58:05;;;;;;;2.60;1.53;;;13.00;88.50;;;;;;5049760;28;20606;-88
2022/07/08 05:00:34;;;;;;;1.00;0.87;;;13.10;88.20;;;;;;5049523;28;20606;-86
2022/07/08 05:03:01;;;;;;;1.27;1.17;;;13.10;88.80;;;;;;5049680;28;21193;-86
2022/07/08 05:05:30;;;;;;;1.27;1.20;;;13.00;88.20;;;;;;5049406;28;20626;-86
2022/07/08 05:07:58;;;;;;;1.70;1.17;;;13.00;88.40;;;;;;5049728;28;20713;-88
2022/07/08 05:10:25;;;;;;;1.27;1.17;;;13.00;88.40;;;;;;5048848;28;20761;-87
2022/07/08 05:12:52;;;;;;;1.10;1.00;;;13.10;87.90;;;;;;5049257;28;20611;-87
2022/07/08 05:15:20;;;;;;;1.57;1.47;;;13.20;87.50;;;;;;5048327;28;20614;-86
2022/07/08 05:17:47;;;;;;;1.37;1.27;;;13.30;87.80;;;;;;5048513;28;20659;-86
2022/07/08 05:20:14;;;;;;;1.47;1.33;;;13.40;87.60;;;;;;5047918;28;20614;-85
2022/07/08 05:22:43;;;;;;;1.53;0.93;;;13.50;86.90;;;;;;5048426;28;21168;-88
2022/07/08 05:25:11;;;;;;;2.83;1.53;;;13.40;86.60;;;;;;5048822;28;20614;-86
2022/07/08 05:27:38;;;;;;;1.00;1.00;;;13.40;86.10;;;;;;5048558;28;21113;-87
2022/07/08 05:30:07;;;;;;;1.27;1.20;;;13.30;86.00;;;;;;5048348;28;20658;-87
2022/07/08 05:32:34;;;;;;;1.37;0.97;;;13.50;86.10;;;;;;5048606;28;20649;-87
2022/07/08 05:35:01;;;;;;;3.07;2.87;;;13.60;85.30;;;;;;5049729;28;20646;-87
2022/07/08 05:37:28;;;;;;;4.20;1.43;;;13.60;84.90;;;;;;5049464;28;20731;-86
2022/07/08 05:39:56;;;;;;;1.70;1.20;;;13.80;84.90;;;;;;5049265;28;20618;-86
2022/07/08 05:42:23;;;;;;;0.80;0.80;;;13.90;83.70;;;;;;5048434;28;20725;-87
2022/07/08 05:44:50;;;;;;;1.80;1.67;;;13.90;83.80;;;;;;5049027;28;20728;-88
2022/07/08 05:47:18;;;;;;;2.80;1.83;;;14.00;83.30;;;;;;5048795;28;20646;-87
2022/07/08 05:49:46;;;;;;;1.20;1.10;;;14.10;83.40;;;;;;5048211;28;20697;-87
2022/07/08 05:52:13;;;;;;;0.80;0.80;;;14.00;83.20;;;;;;5048706;28;20621;-87
2022/07/08 05:54:45;;;;;;;0.90;0.90;;;14.10;82.30;;;;;;5048591;28;20671;-87
2022/07/08 05:57:14;;;;;;;1.07;1.07;;;14.20;82.50;;;;;;5049116;28;20679;-88
2022/07/08 05:59:40;;;;;;;1.20;1.10;;;14.30;82.50;;;;;;5049156;28;20642;-87
2022/07/08 06:02:08;;;;;;;1.30;0.77;;;14.20;82.10;;;;;;5047609;28;20653;-88
2022/07/08 06:04:35;;;;;;;1.03;0.97;;;14.50;81.70;;;;;;5044604;28;20626;-90
2022/07/08 06:07:02;;;;;;;1.83;1.20;;;14.50;81.50;;;;;;5046505;28;21149;-88
2022/07/08 06:09:29;;;;;;;1.00;0.87;;;14.50;80.90;;;;;;5046349;28;20658;-89
2022/07/08 06:11:56;;;;;;;1.20;1.10;;;14.50;80.60;;;;;;5048653;28;20651;-89
2022/07/08 06:14:24;;;;;;;1.83;1.37;;;14.40;79.60;;;;;;5048840;28;21554;-88
2022/07/08 06:16:51;;;;;;;0.90;0.67;;;14.30;80.80;;;;;;5049305;28;20618;-89
2022/07/08 06:19:18;;;;;;;1.33;0.80;;;14.40;81.10;;;;;;5048491;28;20613;-88
2022/07/08 06:21:45;;;;;;;1.10;1.00;;;14.90;80.00;;;;;;5048762;28;20627;-89
2022/07/08 06:24:12;;;;;;;1.00;0.97;;;15.00;80.80;;;;;;5048872;28;20692;-89
2022/07/08 06:26:39;;;;;;;3.10;2.20;;;14.90;80.10;;;;;;5048883;28;20618;-90
2022/07/08 06:29:06;;;;;;;0.90;0.70;;;14.90;78.20;;;;;;5048949;28;20629;-88
2022/07/08 06:31:36;;;;;;;0.70;0.70;;;14.80;80.60;;;;;;5048651;28;21101;-87
2022/07/08 06:34:04;;;;;;;0.67;0.67;;;15.00;78.20;;;;;;5048864;28;20754;-88
2022/07/08 06:36:32;;;;;;;4.93;1.47;;;15.40;77.50;;;;;;5048822;28;20633;-89
2022/07/08 06:38:59;;;;;;;1.10;0.87;;;15.20;77.50;;;;;;5049819;28;20614;-87
2022/07/08 06:41:26;;;;;;;1.13;0.93;;;14.90;77.70;;;;;;5050892;28;20684;-89
2022/07/08 06:43:53;;;;;;;0.73;0.73;;;14.90;80.00;;;;;;5049686;28;20626;-89
2022/07/08 06:46:20;;;;;;;1.33;1.07;;;15.10;78.80;;;;;;5049092;28;20677;-87
2022/07/08 06:48:48;;;;;;;1.53;1.13;;;15.50;80.00;;;;;;5048728;28;20711;-89
2022/07/08 06:51:15;;;;;;;1.90;0.83;;;16.00;77.70;;;;;;5048684;28;20645;-89
2022/07/08 06:56:26;;;;;;;0.90;0.73;;;15.40;76.30;;;;;;5049098;28;20601;-88
2022/07/08 06:58:53;;;;;;;1.23;0.87;;;15.40;75.90;;;;;;5048562;28;20632;-87
2022/07/08 07:01:20;;;;;;;0.93;0.93;;;15.30;75.60;;;;;;5052228;28;20618;-90
2022/07/08 07:03:48;;;;;;;1.30;1.17;;;15.40;77.20;;;;;;5050732;28;20602;-88
2022/07/08 07:06:15;;;;;;;0.90;0.90;;;15.60;78.20;;;;;;5051331;28;20622;-88
2022/07/08 07:08:42;;;;;;;0.70;0.70;;;15.90;77.00;;;;;;5052167;28;21194;-89
2022/07/08 07:11:09;;;;;;;0.60;0.60;;;16.00;75.70;;;;;;5051990;28;20650;-87
2022/07/08 07:13:36;;;;;;;0.67;0.67;;;15.90;74.40;;;;;;5051893;28;20618;-89
2022/07/08 07:16:03;;;;;;;7.93;0.90;;;15.80;72.90;;;;;;5051329;28;20622;-88
2022/07/08 07:18:30;;;;;;;1.37;1.17;;;15.70;73.10;;;;;;5051154;28;20675;-90
2022/07/08 07:20:58;;;;;;;0.60;0.60;;;15.80;74.20;;;;;;5049691;28;20701;-88
2022/07/08 07:23:25;;;;;;;0.90;0.73;;;15.90;74.20;;;;;;5051524;28;20653;-88
2022/07/08 07:25:52;;;;;;;0.90;0.90;;;16.00;74.60;;;;;;5051488;28;21184;-88
2022/07/08 07:28:19;;;;;;;0.67;0.67;;;16.00;72.70;;;;;;5051101;28;20654;-88
2022/07/08 07:30:45;;;;;;;0.97;0.97;;;16.00;72.80;;;;;;5051064;28;20682;-89
2022/07/08 07:33:13;;;;;;;4.17;1.63;;;16.00;73.50;;;;;;5052036;28;20713;-89
2022/07/08 07:35:39;;;;;;;0.70;0.70;;;15.90;71.60;;;;;;5050893;28;20653;-90
2022/07/08 07:38:08;;;;;;;2.00;1.53;;;16.10;72.60;;;;;;5051190;28;20723;-89
2022/07/08 07:40:34;;;;;;;1.23;1.00;;;16.00;70.70;;;;;;5051397;28;20680;-88
2022/07/08 07:43:01;;;;;;;0.70;0.70;;;16.00;71.80;;;;;;5051747;28;20610;-87
2022/07/08 07:45:28;;;;;;;1.27;0.70;;;16.30;70.10;;;;;;5050714;28;20610;-88
2022/07/08 07:47:55;;;;;;;2.30;0.90;;;16.70;70.20;;;;;;5051110;28;20680;-89
2022/07/08 07:50:22;;;;;;;1.00;0.97;;;16.80;68.60;;;;;;5051036;28;21172;-88
2022/07/08 07:52:49;;;;;;;0.80;0.60;;;16.80;67.60;;;;;;5051416;28;20617;-88
2022/07/08 07:55:18;;;;;;;0.70;0.70;;;17.00;69.20;;;;;;5051334;28;20610;-88
2022/07/08 07:57:46;;;;;;;0.80;0.80;;;17.10;67.10;;;;;;5050727;28;20625;-88
2022/07/08 08:00:15;;;;;;;1.13;0.70;;;17.10;66.20;;;;;;5051564;28;20610;-87
2022/07/08 08:02:42;;;;;;;1.27;1.17;;;17.00;67.30;;;;;;5051217;28;20629;-90
2022/07/08 08:05:10;;;;;;;1.37;1.27;;;17.10;66.80;;;;;;5051017;28;20629;-88
2022/07/08 08:07:43;;;;;;;1.03;0.80;;;17.50;65.50;;;;;;5052532;28;20614;-88
2022/07/08 08:10:13;;;;;;;1.10;0.80;;;17.50;65.70;;;;;;5050574;28;20650;-88
2022/07/08 08:12:42;;;;;;;1.00;0.90;;;17.90;66.00;;;;;;5050402;28;20721;-88
2022/07/08 08:15:09;;;;;;;0.73;0.73;;;18.30;66.00;;;;;;5051242;28;20614;-87
2022/07/08 08:17:37;;;;;;;0.60;0.60;;;18.00;62.20;;;;;;5053128;28;20625;-89
2022/07/08 08:20:08;;;;;;;1.00;0.83;;;17.80;64.40;;;;;;5050108;28;20648;-90
2022/07/08 08:23:04;;;;;;;0.60;0.60;;;17.80;62.60;;;;;;5050911;28;20638;-93
2022/07/08 08:25:34;;;;;;;0.70;0.70;;;17.60;63.10;;;;;;5046202;28;20630;-90
2022/07/08 08:28:32;;;;;;;0.70;0.70;;;17.50;65.00;;;;;;5054297;28;20614;-91
2022/07/08 08:30:59;;;;;;;5.80;1.00;;;;;;;;;;5035975;28;20642;-91
2022/07/08 08:33:31;;;;;;;0.70;0.70;;;18.30;60.90;;;;;;5053826;28;20606;-91
2022/07/08 08:36:00;;;;;;;1.03;1.00;;;18.50;64.00;;;;;;5052870;28;20626;-92
2022/07/08 08:38:28;;;;;;;0.83;0.83;;;;;;;;;;5051079;28;21539;-89
2022/07/08 08:40:59;;;;;;;0.67;0.60;;;18.00;61.20;;;;;;5049243;28;20663;-90
2022/07/08 08:43:29;;;;;;;1.00;0.70;;;18.00;62.70;;;;;;5051632;28;20992;-92
2022/07/08 08:45:57;;;;;;;1.43;0.90;;;18.00;63.40;;;;;;5063461;28;20636;-91
2022/07/08 08:48:32;;;;;;;0.80;0.80;;;17.70;63.70;;;;;;5050953;28;20625;-91
2022/07/08 08:51:02;;;;;;;1.00;0.80;;;;;;;;;;5050949;28;20665;-90
2022/07/08 08:53:37;;;;;;;0.77;0.70;;;17.10;63.20;;;;;;5050667;28;20630;-89
2022/07/08 08:56:09;;;;;;;2.60;1.33;;;17.20;63.70;;;;;;5050582;28;20625;-90
2022/07/08 08:58:46;;;;;;;0.80;0.80;;;17.30;65.00;;;;;;5050412;28;21203;-90
2022/07/08 09:01:14;;;;;;;0.90;0.90;;;17.50;63.10;;;;;;5050889;28;20633;-89
2022/07/08 09:03:41;;;;;;;0.50;0.50;;;17.50;63.80;;;;;;5050881;28;20921;-90
2022/07/08 09:06:08;;;;;;;0.53;0.53;;;17.70;63.40;;;;;;5042078;28;20673;-89
2022/07/08 09:08:36;;;;;;;1.70;0.60;;;18.10;61.70;;;;;;5030452;28;20681;-90
2022/07/08 09:11:04;;;;;;;1.30;0.87;;;18.10;59.90;;;;;;5035127;28;20651;-88
2022/07/08 09:13:31;;;;;;;0.77;0.77;;;18.30;60.00;;;;;;5031274;28;20623;-88
2022/07/08 09:16:03;;;;;;;1.23;0.70;;;18.50;59.00;;;;;;5041785;28;21027;-88
2022/07/08 09:18:32;;;;;;;2.93;0.87;;;18.70;58.60;;;;;;5056836;28;20617;-89
2022/07/08 09:21:00;;;;;;;0.80;0.80;;;18.90;59.40;;;;;;5061877;28;21189;-89
2022/07/08 09:23:29;;;;;;;0.77;0.70;;;18.80;59.80;;;;;;5061137;28;20622;-89
2022/07/08 09:25:58;;;;;;;0.50;0.47;;;19.00;59.10;;;;;;5058753;28;20706;-90
2022/07/08 09:28:30;;;;;;;0.80;0.63;;;18.80;58.30;;;;;;5056950;28;20630;-89
2022/07/08 09:30:59;;;;;;;0.93;0.70;;;18.80;58.90;;;;;;5049641;28;20646;-88
2022/07/08 09:33:28;;;;;;;0.80;0.80;;;18.50;59.20;;;;;;5050059;28;20622;-88
2022/07/08 09:36:00;;;;;;;1.30;1.20;;;18.70;59.70;;;;;;5048921;28;20622;-89
2022/07/08 09:38:28;;;;;;;0.70;0.70;;;18.50;58.30;;;;;;5049613;28;20621;-88
2022/07/08 09:40:55;;;;;;;0.70;0.63;;;18.60;58.40;;;;;;5048674;28;21550;-88
2022/07/08 09:43:23;;;;;;;0.83;0.70;;;19.20;58.90;;;;;;5051192;28;20625;-89
2022/07/08 09:45:50;;;;;;;0.80;0.80;;;19.30;59.80;;;;;;5051217;28;21097;-89
2022/07/08 09:48:19;;;;;;;3.70;1.07;;;19.40;59.20;;;;;;5049768;28;20633;-88
2022/07/08 09:50:48;;;;;;;0.70;0.70;;;19.50;58.70;;;;;;5047467;28;20702;-88
2022/07/08 09:53:19;;;;;;;0.73;0.73;;;19.70;57.60;;;;;;5030961;28;20643;-87
2022/07/08 09:55:49;;;;;;;2.53;1.20;;;19.90;58.40;;;;;;5030116;28;20623;-87
2022/07/08 09:58:17;;;;;;;0.80;0.70;;;20.20;56.90;;;;;;5030132;28;20627;-86
2022/07/08 10:00:44;;;;;;;0.70;0.70;;;20.30;57.90;;;;;;5032002;28;21114;-86
2022/07/08 10:03:12;;;;;;;0.73;0.73;;;20.50;58.80;;;;;;5050170;28;20668;-87
2022/07/08 10:05:42;;;;;;;0.87;0.80;;;20.80;56.70;;;;;;5050476;28;20671;-85
2022/07/08 10:08:10;;;;;;;1.03;1.00;;;20.80;56.40;;;;;;5050834;28;21162;-87
2022/07/08 10:10:39;;;;;;;0.70;0.70;;;20.90;56.60;;;;;;5049824;28;20759;-87
2022/07/08 10:13:07;;;;;;;0.90;0.90;;;20.50;57.20;;;;;;5029904;28;20669;-87
2022/07/08 10:15:36;;;;;;;1.03;0.73;;;20.40;56.50;;;;;;5030083;28;20619;-88
2022/07/08 10:18:11;;;;;;;1.10;1.10;;;20.30;56.40;;;;;;5030223;28;20611;-88
2022/07/08 10:20:43;;;;;;;1.93;0.90;;;20.50;57.60;;;;;;5030570;28;20603;-86
2022/07/08 10:23:16;;;;;;;0.73;0.70;;;20.90;56.90;;;;;;5049440;28;20668;-87
2022/07/08 10:25:44;;;;;;;0.80;0.80;;;20.90;57.30;;;;;;5049388;28;20653;-87
2022/07/08 10:28:11;;;;;;;1.27;0.90;;;21.00;58.70;;;;;;5049188;28;20654;-87
2022/07/08 10:30:47;;;;;;;0.97;0.97;;;20.80;56.50;;;;;;5048457;28;20657;-88
2022/07/08 10:33:19;;;;;;;1.93;0.90;;;21.00;56.60;;;;;;5029517;28;20625;-87
2022/07/08 10:36:03;;;;;;;1.63;0.80;;;21.20;57.60;;;;;;5033129;28;20611;-86
2022/07/08 10:38:30;;;;;;;0.80;0.80;;;21.00;56.90;;;;;;5033601;28;20638;-88
2022/07/08 10:41:02;;;;;;;1.50;1.20;;;21.20;56.10;;;;;;5050722;28;20683;-88
2022/07/08 10:43:30;;;;;;;2.60;1.30;;;20.60;56.00;;;;;;5054322;28;21235;-89
2022/07/08 10:46:02;;;;;;;0.90;0.90;;;20.90;56.40;;;;;;5052066;28;20734;-87
2022/07/08 10:48:29;;;;;;;1.17;0.80;;;;;;;;;;5052703;28;20621;-89
2022/07/08 10:50:56;;;;;;;0.90;0.90;;;;;;;;;;5049949;28;20695;-87
2022/07/08 10:53:48;;;;;;;0.73;0.70;;;21.50;57.10;;;;;;5032963;28;21030;-88
2022/07/08 10:56:46;;;;;;;1.07;0.90;;;21.70;55.60;;;;;;5034159;28;20634;-88
2022/07/08 10:59:17;;;;;;;3.07;0.87;;;21.70;56.20;;;;;;5033506;28;21050;-88
2022/07/08 11:01:45;;;;;;;0.80;0.80;;;22.20;56.30;;;;;;5042573;28;21535;-88
2022/07/08 11:04:26;;;;;;;1.83;0.60;;;22.30;54.40;;;;;;5054140;28;20676;-87
2022/07/08 11:06:53;;;;;;;0.70;0.70;;;;;;;;;;5054071;28;20624;-88
2022/07/08 11:09:23;;;;;;;1.07;0.97;;;22.50;55.20;;;;;;5053500;28;21145;-88
2022/07/08 11:11:51;;;;;;;0.70;0.70;;;22.60;54.10;;;;;;5044084;28;21598;-88
2022/07/08 11:14:18;;;;;;;0.90;0.90;;;22.60;53.40;;;;;;5034190;28;20599;-87
2022/07/08 11:16:45;;;;;;;0.97;0.60;;;22.60;53.90;;;;;;5033577;28;20647;-87
2022/07/08 11:19:12;;;;;;;1.03;0.90;;;22.70;54.30;;;;;;5033088;28;20618;-86
2022/07/08 11:21:39;;;;;;;0.90;0.90;;;22.80;54.30;;;;;;5040598;28;20607;-87
2022/07/08 11:24:07;;;;;;;2.60;0.70;;;22.90;55.40;;;;;;5053471;28;20705;-87
2022/07/08 11:26:36;;;;;;;1.30;1.20;;;23.00;54.40;;;;;;5053406;28;20630;-88
2022/07/08 11:29:03;;;;;;;2.77;0.70;;;23.40;54.70;;;;;;5053986;28;20691;-89
2022/07/08 11:31:32;;;;;;;0.60;0.60;;;23.70;54.40;;;;;;5046535;28;21244;-87
2022/07/08 11:33:59;;;;;;;1.10;0.80;;;23.80;54.70;;;;;;5035086;28;20726;-87
2022/07/08 11:36:26;;;;;;;0.80;0.67;;;24.30;52.50;;;;;;5032516;28;20665;-89
2022/07/08 11:38:53;;;;;;;0.63;0.63;;;24.50;51.60;;;;;;5032655;28;20658;-88
2022/07/08 11:41:20;;;;;;;0.60;0.60;;;24.90;52.10;;;;;;5050185;28;20630;-88
2022/07/08 11:43:52;;;;;;;1.60;0.73;;;25.00;54.40;;;;;;5053239;28;20653;-88
2022/07/08 11:46:20;;;;;;;1.00;0.90;;;24.80;50.60;;;;;;5051240;28;21163;-89
2022/07/08 11:48:48;;;;;;;1.77;1.13;;;;;;;;;;5052270;28;20637;-89
2022/07/08 11:51:16;;;;;;;0.90;0.57;;;;;;;;;;5049667;28;20654;-88
2022/07/08 11:53:46;;;;;;;1.33;0.73;;;;;;;;;;5034505;28;20626;-88
2022/07/08 11:56:14;;;;;;;0.57;0.50;;;;;;;;;;5037080;28;20618;-89
2022/07/08 11:58:41;;;;;;;0.53;0.53;;;;;;;;;;5033406;28;20619;-88
2022/07/08 12:01:10;;;;;;;1.53;0.60;;;25.80;48.90;;;;;;5034665;28;20611;-89
2022/07/08 12:03:37;;;;;;;0.63;0.63;;;25.80;50.50;;;;;;5049546;28;20622;-90
2022/07/08 12:06:05;;;;;;;0.70;0.70;;;;;;;;;;5052477;28;20618;-89
2022/07/08 12:08:33;;;;;;;1.00;0.80;;;26.80;48.30;;;;;;5051508;28;20622;-91
2022/07/08 12:11:37;;;;;;;0.50;0.50;;;27.90;46.50;;;;;;5051054;28;20630;-92
2022/07/08 12:17:33;;;;;;;0.53;0.53;;;28.20;41.80;;;;;;5048255;28;21274;-91
2022/07/08 12:20:02;;;;;;;0.70;0.70;;;30.20;40.90;;;;;;5049125;28;20710;-92
2022/07/08 12:22:47;;;;;;;1.80;0.77;;;30.10;41.30;;;;;;5049751;28;20610;-91
2022/07/08 12:25:23;;;;;;;0.70;0.63;;;29.90;45.90;;;;;;5048049;28;20623;-92
2022/07/08 12:28:03;;;;;;;1.37;0.80;;;30.50;40.50;;;;;;5048372;28;20626;-92
2022/07/08 12:30:31;;;;;;;2.07;0.90;;;30.60;41.10;;;;;;5047344;28;20685;-91
2022/07/08 12:33:04;;;;;;;1.13;0.60;;;30.50;41.60;;;;;;5039581;28;20686;-90
2022/07/08 12:35:33;;;;;;;0.93;0.60;;;31.10;39.50;;;;;;5044712;28;20641;-91
2022/07/08 12:38:05;;;;;;;0.83;0.83;;;31.80;39.90;;;;;;5048994;28;20634;-91
2022/07/08 12:40:41;;;;;;;0.60;0.50;;;30.30;39.30;;;;;;5048772;28;20960;-91
2022/07/08 12:43:09;;;;;;;0.73;0.73;;;29.80;41.00;;;;;;5047879;28;21172;-90
2022/07/08 12:45:37;;;;;;;0.80;0.80;;;;;;;;;;5048485;28;20599;-91
2022/07/08 12:48:06;;;;;;;1.13;0.80;;;30.50;40.30;;;;;;5048384;28;20630;-89
2022/07/08 12:50:34;;;;;;;0.60;0.50;;;31.50;41.10;;;;;;5048644;28;21173;-91
2022/07/08 12:53:02;;;;;;;1.40;1.00;;;;;;;;;;5048921;28;20650;-90
2022/07/08 12:55:39;;;;;;;0.60;0.60;;;31.70;39.00;;;;;;5046022;28;21257;-92
2022/07/08 13:01:23;;;;;;;0.50;0.40;;;32.50;39.80;;;;;;5048109;28;20741;-91
2022/07/08 13:04:18;;;;;;;3.37;0.87;;;32.00;39.50;;;;;;5048214;28;20628;-91
2022/07/08 13:06:52;;;;;;;1.53;0.70;;;31.90;38.00;;;;;;5040647;28;20675;-92
2022/07/08 13:09:20;;;;;;;0.80;0.50;;;31.90;38.40;;;;;;5051250;28;20633;-92
2022/07/08 13:11:53;;;;;;;0.60;0.60;;;32.10;36.20;;;;;;5046301;28;20653;-93